createdAt,value
2022-09-21T00:00:12.561Z,4.43
2022-09-21T00:00:45.428Z,4.30
2022-09-21T00:01:25.246Z,4.28
2022-09-21T00:01:57.521Z,3.97
2022-09-21T00:02:29.745Z,4.40
2022-09-21T00:03:02.028Z,4.10
2022-09-21T00:03:34.265Z,4.50
2022-09-21T00:04:06.634Z,4.40
2022-09-21T00:04:38.912Z,4.50
2022-09-21T00:05:11.333Z,4.43
2022-09-21T00:05:43.844Z,4.20
2022-09-21T00:06:17.495Z,4.23
2022-09-21T00:06:49.682Z,4.40
2022-09-21T00:07:21.830Z,4.50
2022-09-21T00:07:53.988Z,4.37
2022-09-21T00:08:26.181Z,4.40
2022-09-21T00:08:58.430Z,4.33
2022-09-21T00:09:30.569Z,4.27
2022-09-21T00:10:02.744Z,4.50
2022-09-21T00:10:35.064Z,4.33
2022-09-21T00:11:07.509Z,4.73
2022-09-21T00:11:39.699Z,4.23
2022-09-21T00:12:12.608Z,4.20
2022-09-21T00:12:45.323Z,4.27
2022-09-21T00:13:19.290Z,4.43
2022-09-21T00:13:59.888Z,4.93
2022-09-21T00:14:32.099Z,4.07
2022-09-21T00:15:06.234Z,4.43
2022-09-21T00:15:39.468Z,4.30
2022-09-21T00:16:11.671Z,4.77
2022-09-21T00:16:43.999Z,4.83
2022-09-21T00:17:16.180Z,4.43
2022-09-21T00:17:48.587Z,4.65
2022-09-21T00:18:20.743Z,4.17
2022-09-21T00:18:53.206Z,4.60
2022-09-21T00:19:25.352Z,4.33
2022-09-21T00:19:57.507Z,3.87
2022-09-21T00:20:29.696Z,4.63
2022-09-21T00:21:06.167Z,3.90
2022-09-21T00:21:38.678Z,4.33
2022-09-21T00:22:11.353Z,4.40
2022-09-21T00:22:44.256Z,4.17
2022-09-21T00:23:16.379Z,4.28
2022-09-21T00:23:49.227Z,4.10
2022-09-21T00:24:21.372Z,4.60
2022-09-21T00:24:53.497Z,4.05
2022-09-21T00:25:25.705Z,4.07
2022-09-21T00:26:24.004Z,4.33
2022-09-21T00:26:56.158Z,4.20
2022-09-21T00:27:30.241Z,3.87
2022-09-21T00:28:02.416Z,4.00
2022-09-21T00:28:34.706Z,4.73
2022-09-21T00:29:07.017Z,4.27
2022-09-21T00:29:39.140Z,4.70
2022-09-21T00:30:11.625Z,4.43
2022-09-21T00:30:43.749Z,4.23
2022-09-21T00:31:18.183Z,4.20
2022-09-21T00:31:50.484Z,4.67
2022-09-21T00:32:25.151Z,4.10
2022-09-21T00:32:57.284Z,3.97
2022-09-21T00:33:29.429Z,4.23
2022-09-21T00:34:03.601Z,4.43
2022-09-21T00:34:35.929Z,4.63
2022-09-21T00:35:08.368Z,4.60
2022-09-21T00:35:41.384Z,4.43
2022-09-21T00:36:17.618Z,4.17
2022-09-21T00:36:49.791Z,4.43
2022-09-21T00:37:22.006Z,3.90
2022-09-21T00:37:54.183Z,4.07
2022-09-21T00:38:26.401Z,4.00
2022-09-21T00:39:01.040Z,4.10
2022-09-21T00:39:33.176Z,3.83
2022-09-21T00:40:05.556Z,4.60
2022-09-21T00:40:37.780Z,4.50
2022-09-21T00:41:12.556Z,3.73
2022-09-21T00:41:45.643Z,4.10
2022-09-21T00:42:21.874Z,4.40
2022-09-21T00:42:54.042Z,4.33
2022-09-21T00:43:26.431Z,3.90
2022-09-21T00:44:20.838Z,4.37
2022-09-21T00:44:53.023Z,4.30
2022-09-21T00:45:25.298Z,4.40
2022-09-21T00:46:01.791Z,3.83
2022-09-21T00:46:35.937Z,4.13
2022-09-21T00:47:11.849Z,4.20
2022-09-21T00:47:45.069Z,4.20
2022-09-21T00:48:17.299Z,4.37
2022-09-21T00:48:49.575Z,4.43
2022-09-21T00:49:22.091Z,3.90
2022-09-21T00:49:55.825Z,3.80
2022-09-21T00:50:28.095Z,4.00
2022-09-21T00:51:04.233Z,4.00
2022-09-21T00:51:37.348Z,3.93
2022-09-21T00:52:10.632Z,3.67
2022-09-21T00:52:51.950Z,3.77
2022-09-21T00:53:24.118Z,4.50
2022-09-21T00:54:00.857Z,4.00
2022-09-21T00:54:37.102Z,3.70
2022-09-21T00:55:12.421Z,4.03
2022-09-21T00:55:47.091Z,4.10
2022-09-21T00:56:20.362Z,3.70
2022-09-21T00:56:53.444Z,4.10
2022-09-21T00:57:26.899Z,3.90
2022-09-21T00:58:01.984Z,4.27
2022-09-21T00:58:39.110Z,3.97
2022-09-21T00:59:13.622Z,3.90
2022-09-21T00:59:45.786Z,4.47
2022-09-21T01:00:18.243Z,3.57
2022-09-21T01:00:50.390Z,3.87
2022-09-21T01:01:24.971Z,3.63
2022-09-21T01:01:58.557Z,3.60
2022-09-21T01:02:30.891Z,3.90
2022-09-21T01:03:03.876Z,3.80
2022-09-21T01:03:36.029Z,3.80
2022-09-21T01:04:08.820Z,4.13
2022-09-21T01:04:41.301Z,4.20
2022-09-21T01:05:13.885Z,3.90
2022-09-21T01:05:46.114Z,3.50
2022-09-21T01:06:19.592Z,3.63
2022-09-21T01:06:52.583Z,3.50
2022-09-21T01:07:28.456Z,4.00
2022-09-21T01:08:02.183Z,3.70
2022-09-21T01:08:34.417Z,3.03
2022-09-21T01:09:06.735Z,3.60
2022-09-21T01:09:40.897Z,3.73
2022-09-21T01:10:14.825Z,3.70
2022-09-21T01:10:54.567Z,3.90
2022-09-21T01:11:34.489Z,3.90
2022-09-21T01:12:29.909Z,3.73
2022-09-21T01:13:16.597Z,3.90
2022-09-21T01:13:48.759Z,3.70
2022-09-21T01:14:50.321Z,3.60
2022-09-21T01:15:22.481Z,3.80
2022-09-21T01:16:14.074Z,3.50
2022-09-21T01:16:52.404Z,3.63
2022-09-21T01:17:24.663Z,3.80
2022-09-21T01:17:57.063Z,3.43
2022-09-21T01:18:47.752Z,3.70
2022-09-21T01:19:19.884Z,3.23
2022-09-21T01:20:15.071Z,3.30
2022-09-21T01:21:05.599Z,3.60
2022-09-21T01:21:45.341Z,3.60
2022-09-21T01:22:26.282Z,3.63
2022-09-21T01:23:30.981Z,3.80
2022-09-21T01:24:03.191Z,4.10
2022-09-21T01:24:35.757Z,3.40
2022-09-21T01:25:24.281Z,3.93
2022-09-21T01:26:04.384Z,3.50
2022-09-21T01:26:48.799Z,3.70
2022-09-21T01:27:32.975Z,4.37
2022-09-21T01:28:23.747Z,3.33
2022-09-21T01:28:58.755Z,3.60
2022-09-21T01:29:38.493Z,3.80
2022-09-21T01:30:15.549Z,3.30
2022-09-21T01:30:49.536Z,3.87
2022-09-21T01:31:23.910Z,3.73
2022-09-21T01:32:05.387Z,3.93
2022-09-21T01:32:41.183Z,3.93
2022-09-21T01:33:25.916Z,4.40
2022-09-21T01:34:00.803Z,3.63
2022-09-21T01:34:32.970Z,4.33
2022-09-21T01:35:10.991Z,3.47
2022-09-21T01:35:52.318Z,4.00
2022-09-21T01:36:28.505Z,3.57
2022-09-21T01:37:03.463Z,3.57
2022-09-21T01:37:35.631Z,3.77
2022-09-21T01:38:33.771Z,4.13
2022-09-21T01:39:08.801Z,3.40
2022-09-21T01:39:43.431Z,3.30
2022-09-21T01:40:18.584Z,3.80
2022-09-21T01:40:56.991Z,3.80
2022-09-21T01:41:30.563Z,3.50
2022-09-21T01:42:03.856Z,4.00
2022-09-21T01:42:37.344Z,3.47
2022-09-21T01:43:11.775Z,3.90
2022-09-21T01:43:47.513Z,3.73
2022-09-21T01:44:21.490Z,3.40
2022-09-21T01:44:56.385Z,3.20
2022-09-21T01:45:31.470Z,3.43
2022-09-21T01:46:06.162Z,3.90
2022-09-21T01:46:38.439Z,3.67
2022-09-21T01:47:12.740Z,4.07
2022-09-21T01:47:47.204Z,3.57
2022-09-21T01:48:20.751Z,4.20
2022-09-21T01:48:56.212Z,3.37
2022-09-21T01:49:31.724Z,3.93
2022-09-21T01:50:05.865Z,3.50
2022-09-21T01:50:41.292Z,3.63
2022-09-21T01:51:15.615Z,3.43
2022-09-21T01:51:54.414Z,3.60
2022-09-21T01:52:36.359Z,3.93
2022-09-21T01:53:12.808Z,3.23
2022-09-21T01:53:51.533Z,3.63
2022-09-21T01:54:28.665Z,3.70
2022-09-21T01:55:02.646Z,3.80
2022-09-21T01:55:38.251Z,4.00
2022-09-21T01:56:13.688Z,4.10
2022-09-21T01:56:50.416Z,3.77
2022-09-21T01:57:25.580Z,3.70
2022-09-21T01:58:05.035Z,3.97
2022-09-21T01:58:42.326Z,3.60
2022-09-21T01:59:17.804Z,3.73
2022-09-21T01:59:53.448Z,3.63
2022-09-21T02:00:26.257Z,3.87
2022-09-21T02:00:58.752Z,3.90
2022-09-21T02:01:32.238Z,3.77
2022-09-21T02:02:15.630Z,4.00
2022-09-21T02:02:53.018Z,4.10
2022-09-21T02:03:29.443Z,3.73
2022-09-21T02:04:03.263Z,3.80
2022-09-21T02:04:35.586Z,3.60
2022-09-21T02:05:07.835Z,4.30
2022-09-21T02:05:40.748Z,3.60
2022-09-21T02:06:13.263Z,4.17
2022-09-21T02:06:47.166Z,3.73
2022-09-21T02:07:19.477Z,3.90
2022-09-21T02:07:52.507Z,4.20
2022-09-21T02:08:26.851Z,3.90
2022-09-21T02:08:58.810Z,3.90
2022-09-21T02:09:31.171Z,3.63
2022-09-21T02:10:03.708Z,4.20
2022-09-21T02:10:41.793Z,3.73
2022-09-21T02:11:14.224Z,3.93
2022-09-21T02:11:46.283Z,4.60
2022-09-21T02:12:19.273Z,4.60
2022-09-21T02:12:54.882Z,4.40
2022-09-21T02:13:29.431Z,4.23
2022-09-21T02:14:01.483Z,4.00
2022-09-21T02:14:34.712Z,3.90
2022-09-21T02:15:06.917Z,4.00
2022-09-21T02:15:41.614Z,4.10
2022-09-21T02:16:22.620Z,3.90
2022-09-21T02:17:07.722Z,4.20
2022-09-21T02:17:42.649Z,3.90
2022-09-21T02:18:27.071Z,3.70
2022-09-21T02:18:58.993Z,3.60
2022-09-21T02:19:43.820Z,4.43
2022-09-21T02:20:17.597Z,3.50
2022-09-21T02:20:52.312Z,4.30
2022-09-21T02:21:41.635Z,3.73
2022-09-21T02:22:17.009Z,4.23
2022-09-21T02:23:10.884Z,4.13
2022-09-21T02:23:47.407Z,4.03
2022-09-21T02:24:38.094Z,3.87
2022-09-21T02:25:15.604Z,4.33
2022-09-21T02:26:03.975Z,3.83
2022-09-21T02:26:40.391Z,4.10
2022-09-21T02:27:12.331Z,3.80
2022-09-21T02:27:44.259Z,3.87
2022-09-21T02:28:34.679Z,3.60
2022-09-21T02:29:17.882Z,4.20
2022-09-21T02:29:53.688Z,3.97
2022-09-21T02:30:26.261Z,3.73
2022-09-21T02:31:17.786Z,4.00
2022-09-21T02:31:49.861Z,4.17
2022-09-21T02:32:25.343Z,4.50
2022-09-21T02:33:06.431Z,3.90
2022-09-21T02:33:42.267Z,4.10
2022-09-21T02:34:14.185Z,3.60
2022-09-21T02:34:47.953Z,3.60
2022-09-21T02:35:22.915Z,3.83
2022-09-21T02:36:15.169Z,3.77
2022-09-21T02:36:49.544Z,3.40
2022-09-21T02:37:31.200Z,3.67
2022-09-21T02:38:29.258Z,3.40
2022-09-21T02:39:10.094Z,3.93
2022-09-21T02:39:45.098Z,4.60
2022-09-21T02:40:30.236Z,3.10
2022-09-21T02:41:12.304Z,3.73
2022-09-21T02:41:50.919Z,3.70
2022-09-21T02:42:27.101Z,3.63
2022-09-21T02:43:11.428Z,4.00
2022-09-21T02:43:46.667Z,3.60
2022-09-21T02:44:25.046Z,3.40
2022-09-21T02:45:00.796Z,3.57
2022-09-21T02:45:42.535Z,3.57
2022-09-21T02:46:40.555Z,3.40
2022-09-21T02:47:26.218Z,3.60
2022-09-21T02:48:07.212Z,3.40
2022-09-21T02:48:43.199Z,4.03
2022-09-21T02:49:18.397Z,3.20
2022-09-21T02:49:53.354Z,3.43
2022-09-21T02:50:54.499Z,3.80
2022-09-21T02:51:34.334Z,3.70
2022-09-21T02:52:10.293Z,3.50
2022-09-21T02:52:43.593Z,3.67
2022-09-21T02:53:18.280Z,3.80
2022-09-21T02:53:51.415Z,3.57
2022-09-21T02:54:25.992Z,3.70
2022-09-21T02:54:58.509Z,3.73
2022-09-21T02:55:31.975Z,3.20
2022-09-21T02:56:07.226Z,3.40
2022-09-21T02:56:40.055Z,3.10
2022-09-21T02:57:12.984Z,3.37
2022-09-21T02:57:46.905Z,3.70
2022-09-21T02:58:19.658Z,3.90
2022-09-21T02:58:54.329Z,3.47
2022-09-21T02:59:27.465Z,3.87
2022-09-21T02:59:59.431Z,3.70
2022-09-21T03:00:31.506Z,3.50
2022-09-21T03:01:08.830Z,3.63
2022-09-21T03:01:41.193Z,3.10
2022-09-21T03:02:13.560Z,3.30
2022-09-21T03:02:45.846Z,3.10
2022-09-21T03:03:20.062Z,3.50
2022-09-21T03:03:52.428Z,3.80
2022-09-21T03:04:24.765Z,3.13
2022-09-21T03:04:56.720Z,3.23
2022-09-21T03:05:29.151Z,3.33
2022-09-21T03:06:02.118Z,3.50
2022-09-21T03:06:34.580Z,3.43
2022-09-21T03:07:07.350Z,3.93
2022-09-21T03:07:39.746Z,3.53
2022-09-21T03:08:11.847Z,3.60
2022-09-21T03:08:43.824Z,3.43
2022-09-21T03:09:15.923Z,3.73
2022-09-21T03:09:47.854Z,3.70
2022-09-21T03:10:20.120Z,3.80
2022-09-21T03:10:52.214Z,3.47
2022-09-21T03:11:24.746Z,3.23
2022-09-21T03:11:56.746Z,3.53
2022-09-21T03:12:29.476Z,4.10
2022-09-21T03:13:01.570Z,3.57
2022-09-21T03:13:33.506Z,3.33
2022-09-21T03:14:08.943Z,3.50
2022-09-21T03:14:40.899Z,3.40
2022-09-21T03:15:12.908Z,3.17
2022-09-21T03:15:45.546Z,3.60
2022-09-21T03:16:17.828Z,3.50
2022-09-21T03:16:49.846Z,3.23
2022-09-21T03:17:24.247Z,3.70
2022-09-21T03:17:56.242Z,3.20
2022-09-21T03:18:28.522Z,3.60
2022-09-21T03:19:00.987Z,3.60
2022-09-21T03:19:32.962Z,3.60
2022-09-21T03:20:05.160Z,3.77
2022-09-21T03:20:38.132Z,3.40
2022-09-21T03:21:10.790Z,3.47
2022-09-21T03:21:44.843Z,3.13
2022-09-21T03:22:17.886Z,4.00
2022-09-21T03:22:49.898Z,3.57
2022-09-21T03:23:22.004Z,3.50
2022-09-21T03:23:54.074Z,3.40
2022-09-21T03:24:44.684Z,3.90
2022-09-21T03:25:16.638Z,3.23
2022-09-21T03:25:48.658Z,3.60
2022-09-21T03:26:22.228Z,3.10
2022-09-21T03:26:54.162Z,3.50
2022-09-21T03:27:26.104Z,3.10
2022-09-21T03:27:58.535Z,3.67
2022-09-21T03:28:30.486Z,3.80
2022-09-21T03:29:03.742Z,3.40
2022-09-21T03:29:35.772Z,3.70
2022-09-21T03:30:08.592Z,3.77
2022-09-21T03:30:40.621Z,3.67
2022-09-21T03:31:13.012Z,3.70
2022-09-21T03:31:45.551Z,3.60
2022-09-21T03:32:17.530Z,3.53
2022-09-21T03:32:50.433Z,3.63
2022-09-21T03:33:22.492Z,3.27
2022-09-21T03:33:54.528Z,3.23
2022-09-21T03:34:27.099Z,3.37
2022-09-21T03:34:59.334Z,4.07
2022-09-21T03:35:31.341Z,3.33
2022-09-21T03:36:04.206Z,3.47
2022-09-21T03:36:36.232Z,3.40
2022-09-21T03:37:08.918Z,3.40
2022-09-21T03:37:41.465Z,3.10
2022-09-21T03:38:13.492Z,3.60
2022-09-21T03:38:45.466Z,3.60
2022-09-21T03:39:17.476Z,3.63
2022-09-21T03:39:49.470Z,3.70
2022-09-21T03:40:21.518Z,3.23
2022-09-21T03:40:57.804Z,3.70
2022-09-21T03:41:29.796Z,3.70
2022-09-21T03:42:02.610Z,3.20
2022-09-21T03:42:34.584Z,3.10
2022-09-21T03:43:06.562Z,3.57
2022-09-21T03:43:38.615Z,3.60
2022-09-21T03:44:10.629Z,3.67
2022-09-21T03:44:43.123Z,3.50
2022-09-21T03:45:15.113Z,3.30
2022-09-21T03:45:48.235Z,3.53
2022-09-21T03:46:20.355Z,3.40
2022-09-21T03:46:52.785Z,3.77
2022-09-21T03:47:24.745Z,3.80
2022-09-21T03:47:57.749Z,4.00
2022-09-21T03:48:29.703Z,3.47
2022-09-21T03:49:02.966Z,3.53
2022-09-21T03:49:35.115Z,3.90
2022-09-21T03:50:10.004Z,3.40
2022-09-21T03:50:42.555Z,3.10
2022-09-21T03:51:14.570Z,3.00
2022-09-21T03:51:46.556Z,3.40
2022-09-21T03:52:18.497Z,2.97
2022-09-21T03:52:50.431Z,3.13
2022-09-21T03:53:22.431Z,3.50
2022-09-21T03:53:54.374Z,3.27
2022-09-21T03:54:26.383Z,3.40
2022-09-21T03:54:58.391Z,3.33
2022-09-21T03:55:31.181Z,3.50
2022-09-21T03:56:03.201Z,3.53
2022-09-21T03:56:35.204Z,2.80
2022-09-21T03:57:08.531Z,3.50
2022-09-21T03:57:40.532Z,3.43
2022-09-21T03:58:12.529Z,3.40
2022-09-21T03:58:44.889Z,3.50
2022-09-21T03:59:17.426Z,3.17
2022-09-21T03:59:49.386Z,3.00
2022-09-21T04:00:21.416Z,3.63
2022-09-21T04:00:54.470Z,3.43
2022-09-21T04:01:26.504Z,3.10
2022-09-21T04:01:58.486Z,3.20
2022-09-21T04:02:30.961Z,3.40
2022-09-21T04:03:03.019Z,3.13
2022-09-21T04:03:35.164Z,3.10
2022-09-21T04:04:07.186Z,3.40
2022-09-21T04:04:39.320Z,3.17
2022-09-21T04:05:14.610Z,3.50
2022-09-21T04:05:46.799Z,3.00
2022-09-21T04:06:19.222Z,2.97
2022-09-21T04:06:51.539Z,3.40
2022-09-21T04:07:23.508Z,3.17
2022-09-21T04:07:56.428Z,2.90
2022-09-21T04:08:28.433Z,3.43
2022-09-21T04:09:02.454Z,3.27
2022-09-21T04:09:34.395Z,2.80
2022-09-21T04:10:07.403Z,2.67
2022-09-21T04:10:41.006Z,2.63
2022-09-21T04:11:14.127Z,2.97
2022-09-21T04:11:46.301Z,3.13
2022-09-21T04:12:22.068Z,3.10
2022-09-21T04:12:57.419Z,3.43
2022-09-21T04:13:29.424Z,3.30
2022-09-21T04:14:01.515Z,3.33
2022-09-21T04:14:33.787Z,3.03
2022-09-21T04:15:07.589Z,3.47
2022-09-21T04:15:39.549Z,2.73
2022-09-21T04:16:11.719Z,3.00
2022-09-21T04:16:43.768Z,3.17
2022-09-21T04:17:15.735Z,3.00
2022-09-21T04:17:51.011Z,3.60
2022-09-21T04:18:23.007Z,3.23
2022-09-21T04:18:55.091Z,3.00
2022-09-21T04:19:27.048Z,2.97
2022-09-21T04:19:59.321Z,2.73
2022-09-21T04:20:31.392Z,3.37
2022-09-21T04:21:03.987Z,2.70
2022-09-21T04:21:35.949Z,3.10
2022-09-21T04:22:08.231Z,3.07
2022-09-21T04:22:43.499Z,3.13
2022-09-21T04:23:15.749Z,3.47
2022-09-21T04:23:47.858Z,2.90
2022-09-21T04:24:19.848Z,2.90
2022-09-21T04:24:51.992Z,3.03
2022-09-21T04:25:23.961Z,2.63
2022-09-21T04:25:57.094Z,3.27
2022-09-21T04:26:30.334Z,2.27
2022-09-21T04:27:02.299Z,2.90
2022-09-21T04:27:34.219Z,2.77
2022-09-21T04:28:06.238Z,3.17
2022-09-21T04:28:38.175Z,3.33
2022-09-21T04:29:10.999Z,2.73
2022-09-21T04:29:43.006Z,2.87
2022-09-21T04:30:15.719Z,2.83
2022-09-21T04:30:47.783Z,2.90
2022-09-21T04:31:20.054Z,2.93
2022-09-21T04:31:52.077Z,2.83
2022-09-21T04:32:24.207Z,2.70
2022-09-21T04:32:56.157Z,3.17
2022-09-21T04:33:28.479Z,3.17
2022-09-21T04:34:00.471Z,2.90
2022-09-21T04:34:32.551Z,2.60
2022-09-21T04:35:04.792Z,2.87
2022-09-21T04:35:37.366Z,3.07
2022-09-21T04:36:09.399Z,3.03
2022-09-21T04:36:41.398Z,2.60
2022-09-21T04:37:13.446Z,2.83
2022-09-21T04:37:49.124Z,2.97
2022-09-21T04:38:21.137Z,3.00
2022-09-21T04:38:53.153Z,3.40
2022-09-21T04:39:25.612Z,2.83
2022-09-21T04:39:57.932Z,2.80
2022-09-21T04:40:30.075Z,3.37
2022-09-21T04:41:03.370Z,3.13
2022-09-21T04:41:35.311Z,3.00
2022-09-21T04:42:07.364Z,3.27
2022-09-21T04:42:39.394Z,3.00
2022-09-21T04:43:11.368Z,3.50
2022-09-21T04:43:46.808Z,2.73
2022-09-21T04:44:19.437Z,2.70
2022-09-21T04:44:51.407Z,2.93
2022-09-21T04:45:23.896Z,3.27
2022-09-21T04:45:55.848Z,3.07
2022-09-21T04:46:27.859Z,2.70
2022-09-21T04:47:00.324Z,2.77
2022-09-21T04:47:32.332Z,2.80
2022-09-21T04:48:04.372Z,2.80
2022-09-21T04:48:36.540Z,3.00
2022-09-21T04:49:08.984Z,2.77
2022-09-21T04:49:40.996Z,3.50
2022-09-21T04:50:13.554Z,2.80
2022-09-21T04:50:48.994Z,2.67
2022-09-21T04:51:20.951Z,3.17
2022-09-21T04:51:52.966Z,2.67
2022-09-21T04:52:25.562Z,2.70
2022-09-21T04:52:58.463Z,3.30
2022-09-21T04:53:30.620Z,2.67
2022-09-21T04:54:02.958Z,2.67
2022-09-21T04:54:34.966Z,2.60
2022-09-21T04:55:07.528Z,2.70
2022-09-21T04:55:39.460Z,3.00
2022-09-21T04:56:13.736Z,2.63
2022-09-21T04:56:45.736Z,2.70
2022-09-21T04:57:17.791Z,2.40
2022-09-21T04:57:49.781Z,3.20
2022-09-21T04:58:24.810Z,2.73
2022-09-21T04:58:56.867Z,2.37
2022-09-21T04:59:28.787Z,3.23
2022-09-21T05:00:00.833Z,3.40
2022-09-21T05:00:33.092Z,2.83
2022-09-21T05:01:06.342Z,2.80
2022-09-21T05:01:38.537Z,2.83
2022-09-21T05:02:10.604Z,2.77
2022-09-21T05:02:42.556Z,2.67
2022-09-21T05:03:14.542Z,2.70
2022-09-21T05:03:46.585Z,2.83
2022-09-21T05:04:18.614Z,3.20
2022-09-21T05:04:51.252Z,2.60
2022-09-21T05:05:23.343Z,2.50
2022-09-21T05:05:56.610Z,2.80
2022-09-21T05:06:32.308Z,2.57
2022-09-21T05:07:04.284Z,2.77
2022-09-21T05:07:36.211Z,3.00
2022-09-21T05:08:08.146Z,3.13
2022-09-21T05:08:58.598Z,3.10
2022-09-21T05:09:49.593Z,2.67
2022-09-21T05:10:21.582Z,3.00
2022-09-21T05:10:53.552Z,2.50
2022-09-21T05:11:25.593Z,2.60
2022-09-21T05:11:58.016Z,2.87
2022-09-21T05:12:33.685Z,2.60
2022-09-21T05:13:05.633Z,3.30
2022-09-21T05:13:37.572Z,3.47
2022-09-21T05:14:10.066Z,2.50
2022-09-21T05:14:44.062Z,2.30
2022-09-21T05:15:16.013Z,3.10
2022-09-21T05:15:48.031Z,2.80
2022-09-21T05:16:20.070Z,3.50
2022-09-21T05:16:52.052Z,3.70
2022-09-21T05:17:24.104Z,3.20
2022-09-21T05:17:56.230Z,3.30
2022-09-21T05:18:28.252Z,3.23
2022-09-21T05:19:00.223Z,3.07
2022-09-21T05:19:32.188Z,3.37
2022-09-21T05:20:04.411Z,3.13
2022-09-21T05:20:36.357Z,3.20
2022-09-21T05:21:09.698Z,3.00
2022-09-21T05:21:41.656Z,2.93
2022-09-21T05:22:13.728Z,3.40
2022-09-21T05:22:45.746Z,3.07
2022-09-21T05:23:17.733Z,2.50
2022-09-21T05:23:50.664Z,3.27
2022-09-21T05:24:23.568Z,2.87
2022-09-21T05:24:55.885Z,3.13
2022-09-21T05:25:27.811Z,3.20
2022-09-21T05:26:00.058Z,3.03
2022-09-21T05:26:31.996Z,2.73
2022-09-21T05:27:04.100Z,3.17
2022-09-21T05:27:36.161Z,3.30
2022-09-21T05:28:08.252Z,2.80
2022-09-21T05:28:40.514Z,2.80
2022-09-21T05:29:12.620Z,2.70
2022-09-21T05:29:44.788Z,3.10
2022-09-21T05:30:16.975Z,3.00
2022-09-21T05:31:14.067Z,2.40
2022-09-21T05:31:51.644Z,3.47
2022-09-21T05:32:31.356Z,3.83
2022-09-21T05:33:04.128Z,3.47
2022-09-21T05:33:37.047Z,3.13
2022-09-21T05:34:25.574Z,3.40
2022-09-21T05:35:27.419Z,3.47
2022-09-21T05:35:59.427Z,3.67
2022-09-21T05:36:31.357Z,3.43
2022-09-21T05:37:29.999Z,4.10
2022-09-21T05:38:01.956Z,3.50
2022-09-21T05:38:34.053Z,3.67
2022-09-21T05:39:07.209Z,4.00
2022-09-21T05:39:39.440Z,3.80
2022-09-21T05:40:11.867Z,4.00
2022-09-21T05:40:44.417Z,4.00
2022-09-21T05:41:16.650Z,3.50
2022-09-21T05:41:48.759Z,4.07
2022-09-21T05:42:20.814Z,4.00
2022-09-21T05:42:52.951Z,3.90
2022-09-21T05:43:25.091Z,3.47
2022-09-21T05:43:57.388Z,3.80
2022-09-21T05:44:29.528Z,3.33
2022-09-21T05:45:01.729Z,3.90
2022-09-21T05:45:33.904Z,3.10
2022-09-21T05:46:10.142Z,3.20
2022-09-21T05:46:42.109Z,3.47
2022-09-21T05:47:24.061Z,3.40
2022-09-21T05:47:59.238Z,3.63
2022-09-21T05:48:36.182Z,3.23
2022-09-21T05:49:17.061Z,3.40
2022-09-21T05:49:51.934Z,3.80
2022-09-21T05:50:35.369Z,3.37
2022-09-21T05:51:21.337Z,3.60
2022-09-21T05:52:06.650Z,3.40
2022-09-21T05:52:42.734Z,3.10
2022-09-21T05:53:33.234Z,3.10
2022-09-21T05:54:12.303Z,3.37
2022-09-21T05:55:06.857Z,3.20
2022-09-21T05:55:55.213Z,3.70
2022-09-21T05:56:29.861Z,3.57
2022-09-21T05:57:08.043Z,3.80
2022-09-21T05:57:46.413Z,3.23
2022-09-21T05:58:37.851Z,3.53
2022-09-21T05:59:09.753Z,3.30
2022-09-21T06:00:01.972Z,3.60
2022-09-21T06:01:02.865Z,3.30
2022-09-21T06:01:34.947Z,3.10
2022-09-21T06:02:07.077Z,3.03
2022-09-21T06:03:05.887Z,3.50
2022-09-21T06:03:38.238Z,3.10
2022-09-21T06:04:11.583Z,3.40
2022-09-21T06:04:43.831Z,3.33
2022-09-21T06:05:15.985Z,3.27
2022-09-21T06:05:48.017Z,3.63
2022-09-21T06:06:20.319Z,3.77
2022-09-21T06:06:52.575Z,3.00
2022-09-21T06:07:24.731Z,3.10
2022-09-21T06:07:56.687Z,3.63
2022-09-21T06:08:28.659Z,4.00
2022-09-21T06:09:00.699Z,3.63
2022-09-21T06:09:32.969Z,3.23
2022-09-21T06:10:05.118Z,3.27
2022-09-21T06:10:37.141Z,3.40
2022-09-21T06:11:09.550Z,3.33
2022-09-21T06:11:41.565Z,3.00
2022-09-21T06:12:13.555Z,3.17
2022-09-21T06:12:45.554Z,4.00
2022-09-21T06:13:17.672Z,3.50
2022-09-21T06:13:49.639Z,3.40
2022-09-21T06:14:25.566Z,3.23
2022-09-21T06:14:58.522Z,3.73
2022-09-21T06:15:30.711Z,3.67
2022-09-21T06:16:03.333Z,3.67
2022-09-21T06:16:42.062Z,3.27
2022-09-21T06:17:14.336Z,3.20
2022-09-21T06:17:46.339Z,3.37
2022-09-21T06:18:18.499Z,3.57
2022-09-21T06:18:50.507Z,3.87
2022-09-21T06:19:22.483Z,3.43
2022-09-21T06:19:54.474Z,3.67
2022-09-21T06:20:26.433Z,3.60
2022-09-21T06:20:58.429Z,3.80
2022-09-21T06:21:30.458Z,3.37
2022-09-21T06:22:02.488Z,4.10
2022-09-21T06:22:34.706Z,3.57
2022-09-21T06:23:11.836Z,3.43
2022-09-21T06:23:43.769Z,3.30
2022-09-21T06:24:15.862Z,4.13
2022-09-21T06:24:48.339Z,3.80
2022-09-21T06:25:20.537Z,3.97
2022-09-21T06:25:57.565Z,3.57
2022-09-21T06:26:30.363Z,3.30
2022-09-21T06:27:02.304Z,3.40
2022-09-21T06:27:34.351Z,3.43
2022-09-21T06:28:07.309Z,3.83
2022-09-21T06:28:39.302Z,3.70
2022-09-21T06:29:11.339Z,3.80
2022-09-21T06:29:43.326Z,3.40
2022-09-21T06:30:15.368Z,3.80
2022-09-21T06:30:51.626Z,4.07
2022-09-21T06:31:23.698Z,3.50
2022-09-21T06:31:55.645Z,4.27
2022-09-21T06:32:27.706Z,3.60
2022-09-21T06:33:00.922Z,3.90
2022-09-21T06:33:35.385Z,4.70
2022-09-21T06:34:07.427Z,4.03
2022-09-21T06:34:39.403Z,4.30
2022-09-21T06:35:11.403Z,3.70
2022-09-21T06:35:43.375Z,3.60
2022-09-21T06:36:15.952Z,4.33
2022-09-21T06:36:47.964Z,4.53
2022-09-21T06:37:20.020Z,4.23
2022-09-21T06:37:51.972Z,4.27
2022-09-21T06:38:24.647Z,4.03
2022-09-21T06:38:56.714Z,4.23
2022-09-21T06:39:28.709Z,3.90
2022-09-21T06:40:00.722Z,4.07
2022-09-21T06:40:33.592Z,3.57
2022-09-21T06:41:05.663Z,3.53
2022-09-21T06:41:37.696Z,3.27
2022-09-21T06:42:15.158Z,3.80
2022-09-21T06:42:47.188Z,3.57
2022-09-21T06:43:19.409Z,3.60
2022-09-21T06:43:53.810Z,3.73
2022-09-21T06:44:25.973Z,3.80
2022-09-21T06:44:57.970Z,4.03
2022-09-21T06:45:31.079Z,3.90
2022-09-21T06:46:03.595Z,3.50
2022-09-21T06:46:35.730Z,4.03
2022-09-21T06:47:07.682Z,3.60
2022-09-21T06:47:39.622Z,4.07
2022-09-21T06:48:11.667Z,4.03
2022-09-21T06:48:43.666Z,3.87
2022-09-21T06:49:15.683Z,4.27
2022-09-21T06:49:47.664Z,3.97
2022-09-21T06:50:20.010Z,3.40
2022-09-21T06:50:52.077Z,3.60
2022-09-21T06:51:24.166Z,3.77
2022-09-21T06:51:56.353Z,4.00
2022-09-21T06:52:28.368Z,3.33
2022-09-21T06:53:00.981Z,3.43
2022-09-21T06:53:33.498Z,4.23
2022-09-21T06:54:05.887Z,3.70
2022-09-21T06:54:38.863Z,3.70
2022-09-21T06:55:10.932Z,3.63
2022-09-21T06:55:42.980Z,4.40
2022-09-21T06:56:15.150Z,3.23
2022-09-21T06:56:47.210Z,3.93
2022-09-21T06:57:19.278Z,3.60
2022-09-21T06:57:51.805Z,3.53
2022-09-21T06:58:23.812Z,3.33
2022-09-21T06:58:55.802Z,3.70
2022-09-21T06:59:27.745Z,4.00
2022-09-21T06:59:59.703Z,4.20
2022-09-21T07:00:32.334Z,3.60
2022-09-21T07:01:08.140Z,3.70
2022-09-21T07:01:40.401Z,3.77
2022-09-21T07:02:12.827Z,4.13
2022-09-21T07:02:45.508Z,3.87
2022-09-21T07:03:18.240Z,3.20
2022-09-21T07:03:51.451Z,4.03
2022-09-21T07:04:25.342Z,3.40
2022-09-21T07:04:58.666Z,3.77
2022-09-21T07:05:32.472Z,4.13
2022-09-21T07:06:04.628Z,3.97
2022-09-21T07:06:36.601Z,3.97
2022-09-21T07:07:08.530Z,4.00
2022-09-21T07:07:40.620Z,3.40
2022-09-21T07:10:06.891Z,3.50
2022-09-21T07:10:39.515Z,3.97
2022-09-21T07:11:11.681Z,3.60
2022-09-21T07:11:43.676Z,4.10
2022-09-21T07:12:16.194Z,4.23
2022-09-21T07:12:49.504Z,3.63
2022-09-21T07:13:21.871Z,4.20
2022-09-21T07:13:53.932Z,4.00
2022-09-21T07:14:25.963Z,4.10
2022-09-21T07:14:57.939Z,4.00
2022-09-21T07:15:29.958Z,3.90
2022-09-21T07:16:07.152Z,4.00
2022-09-21T07:16:40.123Z,4.00
2022-09-21T07:17:15.773Z,3.47
2022-09-21T07:17:50.300Z,4.13
2022-09-21T07:18:24.136Z,3.77
2022-09-21T07:18:56.894Z,3.97
2022-09-21T07:19:28.967Z,3.63
2022-09-21T07:20:02.130Z,3.17
2022-09-21T07:20:34.164Z,3.60
2022-09-21T07:21:07.081Z,3.73
2022-09-21T07:21:39.171Z,4.07
2022-09-21T07:22:11.292Z,3.33
2022-09-21T07:22:43.265Z,4.03
2022-09-21T07:23:16.956Z,3.80
2022-09-21T07:23:48.946Z,4.10
2022-09-21T07:24:20.897Z,3.67
2022-09-21T07:24:52.918Z,3.83
2022-09-21T07:25:24.884Z,4.23
2022-09-21T07:26:00.970Z,3.93
2022-09-21T07:26:34.175Z,3.97
2022-09-21T07:27:06.254Z,3.70
2022-09-21T07:27:38.554Z,3.53
2022-09-21T07:28:11.279Z,3.97
2022-09-21T07:28:43.516Z,3.97
2022-09-21T07:29:15.478Z,3.80
2022-09-21T07:29:47.403Z,4.03
2022-09-21T07:30:19.394Z,3.67
2022-09-21T07:30:51.555Z,3.93
2022-09-21T07:31:23.566Z,4.13
2022-09-21T07:31:55.762Z,3.60
2022-09-21T07:32:27.754Z,3.83
2022-09-21T07:32:59.798Z,3.40
2022-09-21T07:33:36.061Z,3.83
2022-09-21T07:34:08.314Z,3.60
2022-09-21T07:34:40.413Z,3.80
2022-09-21T07:35:12.460Z,4.57
2022-09-21T07:35:51.024Z,3.83
2022-09-21T07:36:23.052Z,4.40
2022-09-21T07:36:55.227Z,4.73
2022-09-21T07:37:27.348Z,3.70
2022-09-21T07:37:59.982Z,3.67
2022-09-21T07:38:35.276Z,4.53
2022-09-21T07:39:09.406Z,4.10
2022-09-21T07:39:41.413Z,3.77